Stewards Mill, Texas
Current Conditions -  °F | °C
As of 8:26 AM on Tuesday 21 Oct 2014 (Local Time) from KCRS Reporting Station
Haze Haze  
Wind Chill: 60°   Ceiling: Unl
Heat Index: 60°   Visibility: 3mi
Dew Point: 58°   Wind: 3mph
Humidity: 93%   Direction: 360°N
Pressure: 30.11"   Gusts: NA
Location:  31.9013°N, 96.2795°W
Report Text: KCRS 211326Z AUTO 36003KT 3SM BR CLR 16/14 A3011 RMK AO2 T01560144
Loading
Personal Weather Stations






























Interactive Weather Map
Tropical Storm Tracking
New forecast layout! Learn more

10-Day Weather Forecast

Advertisements
Track Severe Weather on mobile